• Join FlightAware (Why Join?)
  • Login
  • US Flag 
07:15AM EDT


 

Airport Tracker/Info


-or-


 

Live Flight TrackerFlight Track Log ✈ UPS1337 ✈ 05-Nov-2013 ✈ KPIE - KSDF

Flight Track Log - Related Links

Times and Time Zones

All times are in EST time to prevent confusion due to time zone crossing. See the UPS1337 flight status page for this flight to view local times or setup timezone preferences in your user account.

Time Position Orientation Groundspeed Altitude Reporting Facility
EST Latitude Longitude Course Direction KTS MPH feet Rate Location/Type
09:39PM 27.9510 -82.6960 11° North 178 205 2,100  Level FlightAware
09:39PM 27.9800 -82.7020 350° North 252 290 3,000 2,460 Climbing FlightAware
09:40PM 28.0140 -82.7170 339° North 273 314 4,600 3,600 Climbing FlightAware
09:40PM 28.0510 -82.7300 343° North 276 318 6,600 4,140 Climbing FlightAware
09:40PM 28.0840 -82.7330 355° North 278 320 8,400 3,300 Climbing FlightAware
09:41PM 28.1380 -82.7370 356° North 304 350 10,200 1,920 Climbing FlightAware
09:42PM 28.2290 -82.7440 356° North 385 443 11,500 2,160 Climbing FlightAware
09:43PM 28.3400 -82.7510 357° North 405 466 14,400 2,700 Climbing FlightAware
09:44PM 28.4200 -82.7560 357° North 422 486 16,000 2,460 Climbing FlightAware
09:44PM 28.5100 -82.7620 357° North 433 498 17,900 2,280 Climbing FlightAware
09:45PM 28.6128 -82.7738 354° North 458 527 19,600 2,100 Climbing FlightAware ADS-B (KMCO)
09:47PM 28.7760 -82.7930 354° North 476 548 22,300 1,980 Climbing FlightAware
09:47PM 28.8290 -82.8120 343° North 478 550 23,000 1,860 Climbing FlightAware
09:47PM 28.8650 -82.8370 329° Northwest 487 560 23,700 2,100 Climbing FlightAware
09:48PM 28.9880 -82.9060 334° Northwest 485 558 25,800 1,860 Climbing FlightAware
09:49PM 29.1048 -82.9402 346° North 503 579 27,200 1,920 Climbing FlightAware ADS-B (KMCO)
09:50PM 29.2070 -82.9690 346° North 496 571 29,000 2,400 Climbing FlightAware
09:51PM 29.3050 -82.9970 346° North 484 557 30,800 2,040 Climbing FlightAware
09:51PM 29.4150 -83.0287 346° North 485 558 32,200 1,500 Climbing FlightAware ADS-B (KMCO)
09:53PM 29.5600 -83.0700 346° North 488 562 33,700 900 Climbing FlightAware
09:53PM 29.6640 -83.1000 346° North 487 560 34,000 120 Climbing FlightAware
09:54PM 29.8050 -83.1410 346° North 480 552 34,000  Level FlightAware
09:55PM 29.9170 -83.1730 346° North 479 551 34,000  Level FlightAware
09:56PM 30.0480 -83.2100 346° North 481 554 34,000  Level FlightAware
09:57PM 30.0834 -83.2208 345° North 481 554 34,000  Level FlightAware ADS-B (KMCO)
09:58PM 30.2510 -83.2690 346° North 479 551 34,000  Level FlightAware
09:59PM 30.3390 -83.2950 346° North 479 551 34,000  Level FlightAware
09:59PM 30.4420 -83.3240 346° North 478 550 34,000  Level FlightAware
10:00PM 30.5220 -83.3470 346° North 479 551 34,000  Level FlightAware
10:01PM 30.6380 -83.3820 345° North 480 552 34,000  Level FlightAware
10:02PM 30.7560 -83.4160 346° North 482 555 34,000  Level FlightAware
10:03PM 30.8830 -83.4530 346° North 481 554 34,000  Level FlightAware
10:03PM 30.9540 -83.4740 346° North 481 554 34,000  Level FlightAware
10:04PM 31.0760 -83.5100 346° North 480 552 34,000  Level FlightAware
10:05PM 31.1960 -83.5460 346° North 476 548 34,000  Level FlightAware
10:06PM 31.3200 -83.5820 346° North 471 542 34,000  Level FlightAware
10:07PM 31.4120 -83.6090 346° North 470 541 34,000  Level FlightAware
10:08PM 31.5210 -83.6420 346° North 470 541 34,000  Level FlightAware
10:08PM 31.6100 -83.6690 346° North 470 541 34,000  Level FlightAware
10:09PM 31.7320 -83.7050 346° North 470 541 34,000  Level FlightAware
10:10PM 31.8510 -83.7410 346° North 471 542 34,000  Level FlightAware
10:11PM 31.9480 -83.7700 346° North 471 542 34,000  Level FlightAware
10:12PM 32.0570 -83.8030 346° North 472 543 34,000  Level FlightAware
10:13PM 32.1660 -83.8360 346° North 472 543 34,000  Level FlightAware
10:14PM 32.2610 -83.8650 346° North 472 543 34,000  Level FlightAware
10:15PM 32.3850 -83.9020 346° North 472 543 34,000  Level FlightAware
10:15PM 32.4360 -83.9180 345° North 472 543 34,000  Level FlightAware
10:16PM 32.5470 -83.9510 346° North 471 542 34,000  Level FlightAware
10:17PM 32.6670 -83.9890 345° North 476 548 34,000  Level FlightAware
10:18PM 32.7780 -84.0220 346° North 478 550 34,000  Level FlightAware
10:18PM 32.8930 -84.0580 345° North 479 551 34,000  Level FlightAware
10:19PM 32.9920 -84.0860 347° North 479 551 34,000  Level FlightAware
10:20PM 33.1220 -84.1230 347° North 478 550 34,000  Level FlightAware
10:21PM 33.2440 -84.1590 346° North 478 550 34,000  Level FlightAware
10:22PM 33.3530 -84.1900 347° North 478 550 34,000  Level FlightAware
10:23PM 33.4580 -84.2210 346° North 479 551 34,000  Level FlightAware
10:24PM 33.5648 -84.2517 347° North 481 554 34,000  Level FlightAware ADS-B
10:24PM 33.6303 -84.2706 346° North 482 555 34,000  Level FlightAware ADS-B
10:25PM 33.7381 -84.3023 346° North 482 555 34,000  Level FlightAware ADS-B
10:26PM 33.8237 -84.3277 346° North 481 554 34,000  Level FlightAware ADS-B
10:26PM 33.8887 -84.3467 346° North 480 552 34,000  Level FlightAware ADS-B
10:27PM 33.9732 -84.3713 346° North 478 550 34,000  Level FlightAware ADS-B
10:27PM 34.0512 -84.3942 346° North 478 550 34,000  Level FlightAware ADS-B
10:28PM 34.1660 -84.4280 346° North 478 550 34,000  Level FlightAware
10:29PM 34.2870 -84.4640 346° North 479 551 34,000  Level FlightAware
10:30PM 34.3490 -84.4820 347° North 479 551 34,000  Level FlightAware
10:31PM 34.4511 -84.5130 346° North 479 551 34,000  Level FlightAware ADS-B
10:31PM 34.4901 -84.5242 347° North 481 554 34,000  Level FlightAware ADS-B
10:31PM 34.5310 -84.5322 351° North 485 558 34,000  Level FlightAware ADS-B
10:32PM 34.6011 -84.5416 354° North 486 559 34,000  Level FlightAware ADS-B
10:32PM 34.6727 -84.5508 354° North 487 560 34,000  Level FlightAware ADS-B
10:33PM 34.7544 -84.5613 354° North 487 560 34,000  Level FlightAware ADS-B
10:34PM 34.9020 -84.5810 354° North 484 557 34,000  Level FlightAware
10:34PM 34.9411 -84.5859 354° North 484 557 34,000  Level FlightAware ADS-B
10:35PM 35.0079 -84.5946 354° North 483 556 34,000 -120 Level FlightAware ADS-B
10:35PM 35.0757 -84.6033 354° North 484 557 33,900 -600 Descending FlightAware ADS-B
10:36PM 35.1429 -84.6121 354° North 482 555 33,400 -900 Descending FlightAware ADS-B
10:36PM 35.2099 -84.6210 354° North 478 550 33,000 -420 Descending FlightAware ADS-B
10:37PM 35.2768 -84.6297 354° North 479 551 33,000  Level FlightAware ADS-B
10:37PM 35.3433 -84.6384 354° North 481 554 33,000  Level FlightAware ADS-B
10:38PM 35.4103 -84.6472 354° North 481 554 33,000  Level FlightAware ADS-B
10:38PM 35.4848 -84.6571 354° North 480 552 33,000  Level FlightAware ADS-B
10:39PM 35.5508 -84.6659 354° North 478 550 33,000  Level FlightAware ADS-B
10:39PM 35.6188 -84.6749 354° North 477 549 33,000  Level FlightAware ADS-B
10:40PM 35.6860 -84.6844 353° North 473 544 33,000  Level FlightAware ADS-B
10:40PM 35.7524 -84.6941 353° North 472 543 33,000  Level FlightAware ADS-B
10:41PM 35.8187 -84.7041 353° North 472 543 33,000  Level FlightAware ADS-B
10:41PM 35.9029 -84.7162 353° North 472 543 33,000  Level FlightAware ADS-B
10:42PM 35.9684 -84.7259 353° North 473 544 33,000  Level FlightAware ADS-B
10:42PM 36.0338 -84.7355 353° North 473 544 33,000  Level FlightAware ADS-B
10:43PM 36.0992 -84.7453 353° North 473 544 33,000 -900 Level FlightAware ADS-B
10:43PM 36.1664 -84.7550 353° North 463 533 32,100 -2,460 Descending FlightAware ADS-B
10:44PM 36.2317 -84.7645 353° North 463 533 30,500 -2,040 Descending FlightAware ADS-B
10:45PM 36.3016 -84.7743 354° North 477 549 30,000 -480 Descending FlightAware ADS-B
10:45PM 36.3784 -84.7841 354° North 494 568 30,000 -180 Level FlightAware ADS-B
10:46PM 36.4834 -84.7973 354° North 503 579 29,800 -600 Descending FlightAware ADS-B
10:46PM 36.5530 -84.8066 354° North 503 579 29,300 -1,020 Descending FlightAware ADS-B
10:47PM 36.6406 -84.8181 354° North 492 566 28,700 -960 Descending FlightAware ADS-B
10:48PM 36.7119 -84.8274 354° North 482 555 28,200 -1,200 Descending FlightAware ADS-B
10:48PM 36.7787 -84.8363 354° North 488 562 27,500 -1,500 Descending FlightAware ADS-B
10:49PM 36.8696 -84.8482 354° North 493 567 26,500 -1,500 Descending FlightAware ADS-B
10:49PM 36.9381 -84.8572 354° North 490 564 25,800 -1,500 Descending FlightAware ADS-B
10:50PM 37.0067 -84.8662 354° North 486 559 25,000 -1,500 Descending FlightAware ADS-B
10:50PM 37.0742 -84.8749 354° North 483 556 24,300 -1,440 Descending FlightAware ADS-B
10:51PM 37.1404 -84.8838 354° North 473 544 23,600 -2,400 Descending FlightAware ADS-B
10:51PM 37.2068 -84.8926 354° North 462 532 21,900 -3,180 Descending FlightAware ADS-B
10:52PM 37.2844 -84.9029 354° North 455 524 20,000 -3,120 Descending FlightAware ADS-B
10:53PM 37.4090 -84.9190 354° North 435 501 16,900 -3,060 Descending FlightAware
10:54PM 37.4870 -84.9300 354° North 422 486 14,900 -3,120 Descending FlightAware
10:54PM 37.5500 -84.9380 354° North 415 478 13,200 -2,940 Descending FlightAware
10:55PM 37.6370 -84.9530 352° North 397 457 11,000 -2,100 Descending FlightAware
10:55PM 37.6790 -84.9850 329° Northwest 352 405 10,600 -780 Descending FlightAware
10:56PM 37.7400 -85.0700 312° West 299 344 9,900 -600 Descending FlightAware
10:57PM 37.7670 -85.1070 313° West 291 335 9,700 -300 Descending FlightAware
10:57PM 37.7810 -85.1270 312° West 289 333 9,700  Level FlightAware
10:58PM 37.8140 -85.1740 312° West 288 331 9,700  Level FlightAware
10:58PM 37.8390 -85.2090 312° West 288 331 9,700  Level FlightAware
10:59PM 37.8610 -85.2390 313° West 288 331 9,700  Level FlightAware
10:59PM 37.8950 -85.2860 313° West 288 331 9,700  Level FlightAware
11:00PM 37.9160 -85.3150 313° West 288 331 9,700  Level FlightAware
11:00PM 37.9400 -85.3490 312° West 288 331 9,700 -540 Level FlightAware
11:01PM 37.9730 -85.3930 314° West 284 327 9,200 -1,200 Descending FlightAware
11:01PM 37.9950 -85.4240 312° West 284 327 8,500 -1,440 Descending FlightAware
11:02PM 38.0170 -85.4550 312° West 281 323 7,900 -1,500 Descending FlightAware
11:02PM 38.0430 -85.4930 311° West 278 320 7,100 -1,620 Descending FlightAware
11:03PM 38.0740 -85.5350 313° West 272 313 6,200 -1,500 Descending FlightAware
11:03PM 38.0910 -85.5590 312° West 274 315 5,800 -600 Descending FlightAware
11:03PM 38.1270 -85.5890 327° Northwest 284 327 5,700 -120 Descending FlightAware
11:04PM 38.1570 -85.6030 340° North 281 323 5,700 -120 Level FlightAware
11:05PM 38.2070 -85.6260 340° North 272 313 5,600 -720 Descending FlightAware
11:05PM 38.2420 -85.6380 345° North 273 314 4,900 -1,200 Descending FlightAware
11:06PM 38.2800 -85.6510 345° North 255 293 4,400 -840 Descending FlightAware
11:06PM 38.3020 -85.6580 346° North 242 278 4,200 -660 Descending FlightAware
11:06PM 38.3300 -85.6650 349° North 230 265 3,900 -480 Descending FlightAware
11:07PM 38.3550 -85.6720 348° North 214 246 3,800 -240 Descending FlightAware
11:07PM 38.3920 -85.6830 347° North 200 230 3,700 -120 Descending FlightAware
11:08PM 38.4020 -85.7050 300° West 177 204 3,700 -300 Level FlightAware
11:08PM 38.3910 -85.7360 246° West 159 183 3,400 -840 Descending FlightAware
11:09PM 38.3760 -85.7500 216° Southwest 156 180 2,900 -1,200 Descending FlightAware
11:09PM 38.3590 -85.7590 203° Southwest 154 177 2,400 -780 Descending FlightAware
11:10PM 38.3380 -85.7670 197° South 154 177 2,200 -180 Descending FlightAware
11:10PM 38.3100 -85.7730 190° South 155 178 2,200  Level FlightAware
11:11PM 38.2950 -85.7690 168° South 158 182 2,200  Level FlightAware
11:11PM 38.2820 -85.7640 163° South 142 163 2,200 -480 Level FlightAware
11:12PM 38.2550 -85.7550 165° South 103 119 1,700 -660 Descending FlightAware
11:12PM 38.2420 -85.7500 163° South 104 120 1,400 -540 Descending FlightAware
11:13PM 38.2290 -85.7460 166° South 106 122 1,200 -540 Descending FlightAware
11:13PM 38.2150 -85.7410 164° South 115 132 900 -660 Descending FlightAware
11:14PM 38.2000 -85.7360 165° South 117 135 600 -720 Descending FlightAware
11:14PM 38.1870 -85.7310 163° South 124 143 300 -780 Descending FlightAware